Time;durP1;ratioP1;P1;durP2;ratioP2;P2;SDS_P1;SDS_P2;PMS_P1;PMS_P2;Temp;Humidity;BMP_temperature;BMP_pressure;BME280_temperature;BME280_humidity;BME280_pressure;Samples;Min_cycle;Max_cycle;Signal;HPM_P1;HPM_P2
2022/01/28 00:01:06;;;;;;;5.77;4.90;;;0.20;99.90;;;;;;5007009;28;20536;-51
2022/01/28 00:03:36;;;;;;;3.93;2.87;;;0.10;99.90;;;;;;5019864;28;20440;-51
2022/01/28 00:06:03;;;;;;;5.03;3.97;;;0.10;99.90;;;;;;5012037;28;20477;-52
2022/01/28 00:08:30;;;;;;;5.50;3.80;;;0.30;99.90;;;;;;5008215;28;20500;-51
2022/01/28 00:10:57;;;;;;;4.60;4.20;;;0.20;99.90;;;;;;5021407;28;20954;-51
2022/01/28 00:13:32;;;;;;;6.93;3.47;;;0.20;99.90;;;;;;5010259;28;20534;-51
2022/01/28 00:38:06;;;;;;;5.00;4.30;;;0.50;99.90;;;;;;5012387;28;20882;-52
2022/01/28 00:40:34;;;;;;;4.30;3.90;;;0.50;99.90;;;;;;5010181;28;20453;-51
2022/01/28 00:43:02;;;;;;;3.50;3.20;;;0.40;99.90;;;;;;5014178;28;20906;-50
2022/01/28 00:45:29;;;;;;;4.67;3.50;;;0.40;99.90;;;;;;5019481;28;20512;-51
2022/01/28 00:47:56;;;;;;;4.43;4.03;;;0.30;99.90;;;;;;5012810;28;20497;-49
2022/01/28 00:50:24;;;;;;;5.90;4.50;;;0.40;99.90;;;;;;5013678;28;20884;-47
2022/01/28 00:52:51;;;;;;;4.47;3.53;;;0.40;99.90;;;;;;5009838;28;20514;-52
2022/01/28 00:55:18;;;;;;;3.83;3.50;;;0.30;99.90;;;;;;5017985;28;20939;-51
2022/01/28 00:57:45;;;;;;;4.50;4.10;;;0.40;99.90;;;;;;5014064;28;20803;-51
2022/01/28 01:00:13;;;;;;;4.03;3.63;;;0.40;99.90;;;;;;5014724;28;20485;-52
2022/01/28 01:02:40;;;;;;;4.40;3.87;;;0.10;99.90;;;;;;5023852;28;20956;-52
2022/01/28 01:05:08;;;;;;;4.00;3.17;;;0.20;99.90;;;;;;5018376;28;20485;-51
2022/01/28 01:07:37;;;;;;;5.93;4.80;;;0.30;99.90;;;;;;5010655;28;20514;-50
2022/01/28 01:10:06;;;;;;;3.33;3.07;;;0.40;99.90;;;;;;5016472;28;20489;-53
2022/01/28 01:12:37;;;;;;;6.13;4.73;;;0.40;99.90;;;;;;5018067;28;20457;-52
2022/01/28 01:15:05;;;;;;;7.17;5.80;;;0.30;99.90;;;;;;5024864;28;20444;-53
2022/01/28 01:17:36;;;;;;;5.97;3.70;;;0.40;99.90;;;;;;5013863;28;20505;-52
2022/01/28 01:20:30;;;;;;;3.73;3.43;;;0.00;99.90;;;;;;5019010;28;20877;-52
2022/01/28 01:23:07;;;;;;;11.17;5.57;;;0.00;99.90;;;;;;5007645;28;20883;-52
2022/01/28 01:25:42;;;;;;;7.17;4.67;;;0.10;99.90;;;;;;5022616;28;20484;-51
2022/01/28 01:28:10;;;;;;;5.23;4.10;;;0.30;99.90;;;;;;5021513;28;20469;-51
2022/01/28 01:30:40;;;;;;;5.17;4.40;;;0.10;99.90;;;;;;5022891;28;20557;-53
2022/01/28 01:33:07;;;;;;;8.00;4.40;;;-0.10;99.90;;;;;;5023108;28;20537;-52
2022/01/28 01:35:35;;;;;;;4.43;4.03;;;0.10;99.90;;;;;;5018909;28;20507;-52
2022/01/28 01:38:05;;;;;;;5.03;4.00;;;0.20;99.90;;;;;;5015430;28;20496;-51
2022/01/28 01:40:37;;;;;;;4.17;3.70;;;0.30;99.90;;;;;;5015334;28;20522;-53
2022/01/28 01:43:12;;;;;;;3.97;3.67;;;0.40;99.90;;;;;;5015077;28;20497;-52
2022/01/28 01:46:06;;;;;;;6.37;4.30;;;0.50;99.90;;;;;;5019749;28;20481;-53
2022/01/28 01:54:04;;;;;;;5.03;4.53;;;0.20;99.90;;;;;;5023525;28;20864;-51
2022/01/28 01:56:33;;;;;;;5.70;4.77;;;0.30;99.90;;;;;;5020720;28;20438;-50
2022/01/28 01:59:00;;;;;;;6.63;5.77;;;0.30;99.90;;;;;;5020975;28;20504;-50
2022/01/28 02:01:28;;;;;;;6.30;5.37;;;0.10;99.90;;;;;;5022843;28;20535;-50
2022/01/28 02:03:55;;;;;;;7.60;5.27;;;0.00;99.90;;;;;;5021399;28;20481;-50
2022/01/28 02:06:23;;;;;;;5.20;4.33;;;0.20;99.90;;;;;;5011452;28;20515;-51
2022/01/28 02:08:50;;;;;;;7.47;5.03;;;0.30;99.90;;;;;;5015630;28;20484;-52
2022/01/28 02:11:19;;;;;;;7.10;5.27;;;0.40;99.90;;;;;;5017239;28;20539;-51
2022/01/28 02:13:50;;;;;;;5.53;5.00;;;0.20;99.90;;;;;;5020490;28;20496;-53
2022/01/28 02:16:18;;;;;;;6.50;5.20;;;0.30;99.90;;;;;;5012228;28;20443;-52
2022/01/28 02:18:46;;;;;;;6.60;5.17;;;0.20;99.90;;;;;;5011567;28;20478;-51
2022/01/28 02:21:17;;;;;;;5.57;4.80;;;-0.10;99.90;;;;;;5014603;28;20473;-51
2022/01/28 02:23:48;;;;;;;5.90;5.30;;;-0.10;99.90;;;;;;5025217;28;20451;-50
2022/01/28 02:26:15;;;;;;;5.23;4.80;;;-0.30;99.90;;;;;;5017526;28;20504;-50
2022/01/28 02:28:45;;;;;;;7.83;5.20;;;-0.30;99.90;;;;;;5022565;28;21079;-51
2022/01/28 02:31:12;;;;;;;5.53;5.03;;;-0.40;99.90;;;;;;5017078;28;20460;-51
2022/01/28 02:33:39;;;;;;;4.70;4.20;;;-0.50;99.90;;;;;;5016096;28;20460;-51
2022/01/28 02:36:07;;;;;;;5.27;4.57;;;-0.40;99.90;;;;;;5011529;28;20471;-51
2022/01/28 02:38:36;;;;;;;5.67;5.10;;;-0.30;99.90;;;;;;5012574;28;20464;-51
2022/01/28 02:41:04;;;;;;;8.40;6.13;;;-0.10;99.90;;;;;;5008474;28;20468;-51
2022/01/28 02:43:38;;;;;;;7.50;6.20;;;0.00;99.90;;;;;;5011936;28;20554;-53
2022/01/28 02:46:09;;;;;;;6.27;5.77;;;0.00;99.90;;;;;;5015321;28;20540;-51
2022/01/28 02:48:39;;;;;;;6.67;6.00;;;0.20;99.90;;;;;;5022265;28;20458;-52
2022/01/28 02:51:12;;;;;;;6.27;5.67;;;0.20;99.90;;;;;;5016957;28;20977;-53
2022/01/28 02:53:44;;;;;;;7.50;5.57;;;0.30;99.90;;;;;;5021074;28;20474;-53
2022/01/28 02:56:16;;;;;;;5.53;5.10;;;0.30;99.90;;;;;;5024732;28;20450;-51
2022/01/28 02:58:43;;;;;;;8.40;6.40;;;0.40;99.90;;;;;;5079318;22;20497;-88
2022/01/28 03:01:12;;;;;;;8.27;6.60;;;0.40;99.90;;;;;;5060825;28;20464;-87
2022/01/28 03:03:40;;;;;;;5.83;5.43;;;0.30;99.90;;;;;;5059008;28;20448;-88
2022/01/28 03:06:07;;;;;;;8.00;7.20;;;0.40;99.90;;;;;;5062311;28;20618;-88
2022/01/28 03:08:34;;;;;;;6.30;5.70;;;0.30;99.90;;;;;;5061039;28;20466;-89
2022/01/28 03:11:30;;;;;;;7.20;6.23;;;0.30;99.90;;;;;;5061755;28;20519;-88
2022/01/28 03:14:20;;;;;;;9.33;6.87;;;0.30;99.90;;;;;;5057860;28;20562;-89
2022/01/28 03:17:06;;;;;;;6.23;5.50;;;0.30;99.90;;;;;;5056011;28;20439;-88
2022/01/28 03:19:44;;;;;;;7.93;5.70;;;0.40;99.90;;;;;;5053522;28;20448;-88
2022/01/28 03:22:12;;;;;;;6.80;6.17;;;0.30;99.90;;;;;;5051518;28;20535;-88
2022/01/28 03:24:40;;;;;;;6.77;5.97;;;0.30;99.90;;;;;;5060721;28;20506;-89
2022/01/28 03:27:17;;;;;;;7.50;6.80;;;0.30;99.90;;;;;;5059262;28;20513;-89
2022/01/28 03:29:44;;;;;;;6.63;6.07;;;0.20;99.90;;;;;;5057233;28;20462;-89
2022/01/28 03:32:11;;;;;;;6.10;5.13;;;0.30;99.90;;;;;;5061491;28;20518;-88
2022/01/28 03:34:38;;;;;;;5.33;4.87;;;0.30;99.90;;;;;;5058666;28;20571;-89
2022/01/28 03:37:07;;;;;;;5.23;4.73;;;0.50;99.90;;;;;;5066050;28;20501;-89
2022/01/28 03:39:35;;;;;;;7.67;6.80;;;0.70;99.90;;;;;;5061658;28;20480;-88
2022/01/28 03:42:02;;;;;;;6.70;6.07;;;0.70;99.90;;;;;;5054562;28;20481;-89
2022/01/28 03:44:31;;;;;;;5.93;5.43;;;0.60;99.90;;;;;;5055679;28;20500;-89
2022/01/28 03:46:58;;;;;;;7.97;7.17;;;0.50;99.90;;;;;;5061278;28;20898;-89
2022/01/28 03:49:25;;;;;;;8.03;7.23;;;0.20;99.90;;;;;;5061520;28;20458;-89
2022/01/28 03:51:52;;;;;;;7.90;7.10;;;0.00;99.90;;;;;;5050650;28;20894;-89
2022/01/28 03:54:19;;;;;;;8.10;7.30;;;0.10;99.90;;;;;;5057433;28;20481;-89
2022/01/28 03:56:46;;;;;;;8.93;7.07;;;0.20;99.90;;;;;;5056557;28;20447;-89
2022/01/28 03:59:13;;;;;;;11.57;9.07;;;0.30;99.90;;;;;;5058924;28;20854;-88
2022/01/28 04:01:44;;;;;;;11.13;8.67;;;0.40;99.90;;;;;;5055965;28;20502;-88
2022/01/28 04:12:27;;;;;;;8.70;7.90;;;0.30;99.90;;;;;;5060360;28;20424;-88
2022/01/28 04:15:07;;;;;;;8.50;7.30;;;0.50;99.90;;;;;;5053885;28;20458;-89
2022/01/28 04:17:36;;;;;;;7.40;6.40;;;0.60;99.90;;;;;;5055903;28;20542;-88
2022/01/28 04:20:03;;;;;;;6.90;6.40;;;0.50;99.90;;;;;;5058133;28;20507;-89
2022/01/28 04:22:30;;;;;;;7.73;6.80;;;0.50;99.90;;;;;;5057994;23;20562;-58
2022/01/28 04:24:57;;;;;;;7.30;6.70;;;0.60;99.90;;;;;;5049865;28;20517;-59
2022/01/28 04:27:24;;;;;;;8.80;6.80;;;0.60;99.90;;;;;;5048406;28;20515;-59
2022/01/28 04:29:52;;;;;;;7.73;6.43;;;0.50;99.90;;;;;;5042409;28;20966;-59
2022/01/28 04:32:19;;;;;;;6.30;5.63;;;0.60;99.90;;;;;;5052396;28;20442;-58
2022/01/28 04:34:48;;;;;;;7.20;6.07;;;0.70;99.90;;;;;;5079337;23;20490;-83
2022/01/28 04:37:24;;;;;;;7.90;6.70;;;0.60;99.90;;;;;;5050406;28;20494;-83
2022/01/28 04:39:56;;;;;;;7.27;6.57;;;0.70;99.90;;;;;;5043602;28;20863;-84
2022/01/28 04:42:44;;;;;;;5.73;5.13;;;0.70;99.90;;;;;;5061110;28;21086;-84
2022/01/28 04:45:18;;;;;;;5.43;4.93;;;0.70;99.90;;;;;;5061846;28;20447;-83
2022/01/28 04:47:55;;;;;;;5.20;4.70;;;0.80;99.90;;;;;;5059006;28;20481;-84
2022/01/28 04:50:26;;;;;;;4.60;3.70;;;0.90;99.90;;;;;;5052054;28;20456;-84
2022/01/28 04:55:57;;;;;;;4.60;3.10;;;1.10;99.90;;;;;;5058470;28;20452;-83
2022/01/28 04:58:37;;;;;;;6.90;5.50;;;1.20;99.90;;;;;;5056485;28;20453;-84
2022/01/28 05:01:32;;;;;;;9.00;7.37;;;1.30;99.90;;;;;;5052535;28;20506;-84
2022/01/28 05:04:11;;;;;;;9.33;8.50;;;1.30;99.90;;;;;;5051782;28;20444;-84
2022/01/28 05:10:02;;;;;;;7.60;6.90;;;1.20;99.90;;;;;;5042981;28;20512;-84
2022/01/28 05:12:55;;;;;;;6.37;5.80;;;1.10;99.90;;;;;;5044063;28;20463;-84
2022/01/28 05:15:47;;;;;;;7.50;6.90;;;1.10;99.90;;;;;;5046648;28;20468;-84
2022/01/28 05:26:35;;;;;;;14.63;13.33;;;1.00;99.90;;;;;;5069440;28;20431;-84
2022/01/28 05:29:03;;;;;;;14.07;12.87;;;1.00;99.90;;;;;;5057072;28;20465;-84
2022/01/28 05:31:30;;;;;;;7.70;6.87;;;1.10;99.90;;;;;;5054048;28;20540;-84
2022/01/28 05:33:57;;;;;;;7.90;5.20;;;1.20;99.90;;;;;;5040772;28;20712;-84
2022/01/28 05:36:24;;;;;;;5.73;5.23;;;1.20;99.90;;;;;;5040515;28;20477;-84
2022/01/28 05:38:52;;;;;;;6.40;4.80;;;1.20;99.90;;;;;;5042181;28;20468;-85
2022/01/28 05:41:19;;;;;;;3.93;2.53;;;1.10;99.90;;;;;;5048195;28;20905;-84
2022/01/28 05:43:46;;;;;;;3.40;2.60;;;1.00;99.90;;;;;;5054786;28;20541;-85
2022/01/28 05:46:13;;;;;;;3.20;1.73;;;1.00;99.90;;;;;;5051187;28;20467;-85
2022/01/28 05:48:40;;;;;;;2.67;2.47;;;1.10;99.90;;;;;;5044861;28;20486;-85
2022/01/28 05:51:07;;;;;;;3.00;2.27;;;1.10;99.90;;;;;;5054878;28;20477;-84
2022/01/28 05:53:34;;;;;;;4.33;3.80;;;1.20;99.90;;;;;;5053397;28;20480;-84
2022/01/28 05:56:02;;;;;;;4.67;4.27;;;1.20;99.90;;;;;;5057434;28;20449;-85
2022/01/28 05:58:29;;;;;;;6.67;5.97;;;1.20;99.90;;;;;;5047803;28;20554;-84
2022/01/28 06:00:56;;;;;;;7.47;6.20;;;1.30;99.90;;;;;;5047840;28;20507;-84
2022/01/28 06:03:23;;;;;;;4.10;2.93;;;1.30;99.90;;;;;;5054825;28;20449;-84
2022/01/28 06:05:50;;;;;;;4.37;3.97;;;1.10;99.90;;;;;;5062348;28;20454;-84
2022/01/28 06:08:17;;;;;;;8.57;6.40;;;1.20;99.90;;;;;;5055617;28;20497;-84
2022/01/28 06:10:44;;;;;;;5.40;4.37;;;1.20;99.90;;;;;;5060319;28;20978;-85
2022/01/28 06:13:13;;;;;;;3.77;3.47;;;1.20;99.90;;;;;;5049490;28;20479;-85
2022/01/28 06:15:43;;;;;;;5.60;5.10;;;1.20;99.90;;;;;;5063690;28;20498;-84
2022/01/28 06:18:11;;;;;;;3.30;3.10;;;1.20;99.90;;;;;;5054223;28;20813;-85
2022/01/28 06:20:38;;;;;;;2.20;2.00;;;1.10;99.90;;;;;;5053553;28;20502;-84
2022/01/28 06:23:05;;;;;;;3.63;2.30;;;1.20;99.90;;;;;;5057579;28;20481;-84
2022/01/28 06:25:32;;;;;;;2.97;2.40;;;1.20;99.90;;;;;;5055459;28;20473;-84
2022/01/28 06:27:59;;;;;;;10.13;6.90;;;1.30;99.90;;;;;;5050866;28;20856;-84
2022/01/28 06:30:27;;;;;;;7.10;6.40;;;1.30;99.90;;;;;;5052738;28;20457;-85
2022/01/28 06:32:54;;;;;;;12.13;7.80;;;0.90;99.90;;;;;;5058307;28;20446;-85
2022/01/28 06:35:21;;;;;;;9.63;5.67;;;0.60;99.90;;;;;;5061788;28;20444;-85
2022/01/28 06:37:48;;;;;;;4.37;3.07;;;0.60;99.90;;;;;;5061848;28;20459;-85
2022/01/28 06:40:17;;;;;;;6.30;5.70;;;0.80;99.90;;;;;;5053345;28;20445;-85
2022/01/28 06:42:45;;;;;;;12.63;10.60;;;1.00;99.90;;;;;;5058020;28;20476;-85
2022/01/28 06:45:13;;;;;;;10.77;9.53;;;1.00;99.90;;;;;;5064445;28;20465;-85
2022/01/28 06:47:41;;;;;;;11.20;7.37;;;1.00;99.90;;;;;;5058653;28;20475;-85
2022/01/28 06:50:10;;;;;;;7.23;6.47;;;0.90;99.90;;;;;;5054328;28;21010;-84
2022/01/28 06:52:39;;;;;;;8.63;6.70;;;0.90;99.90;;;;;;5057537;28;20468;-85
2022/01/28 06:55:07;;;;;;;6.33;5.80;;;1.00;99.90;;;;;;5053292;28;20994;-85
2022/01/28 06:57:35;;;;;;;8.57;6.30;;;1.10;99.90;;;;;;5045855;28;20444;-87
2022/01/28 07:00:02;;;;;;;7.17;6.07;;;1.20;99.90;;;;;;5046704;28;20922;-87
2022/01/28 07:02:29;;;;;;;8.37;5.80;;;1.20;99.90;;;;;;5048195;28;20472;-87
2022/01/28 07:04:57;;;;;;;6.17;5.07;;;1.30;99.90;;;;;;5052489;28;20449;-86
2022/01/28 07:07:25;;;;;;;6.80;4.10;;;1.30;99.90;;;;;;5062253;28;20474;-87
2022/01/28 07:09:53;;;;;;;7.20;5.20;;;1.40;99.90;;;;;;5051983;28;20899;-86
2022/01/28 07:12:20;;;;;;;4.40;4.00;;;1.40;99.90;;;;;;5054650;28;21023;-87
2022/01/28 07:14:47;;;;;;;5.10;4.13;;;1.40;99.90;;;;;;5052124;28;20448;-87
2022/01/28 07:17:15;;;;;;;4.17;3.77;;;1.40;99.90;;;;;;5051264;28;20535;-88
2022/01/28 07:19:42;;;;;;;3.57;3.27;;;1.40;99.90;;;;;;5049927;28;20566;-87
2022/01/28 07:22:10;;;;;;;3.77;3.40;;;1.40;99.90;;;;;;5053480;28;20469;-87
2022/01/28 07:24:37;;;;;;;6.03;3.67;;;1.20;99.90;;;;;;5059107;28;20454;-87
2022/01/28 07:27:04;;;;;;;4.27;3.87;;;1.30;99.90;;;;;;5056179;28;20447;-87
2022/01/28 07:29:33;;;;;;;4.40;3.80;;;1.30;99.90;;;;;;5059777;28;20505;-87
2022/01/28 07:32:00;;;;;;;3.40;3.20;;;1.40;99.90;;;;;;5055608;28;20473;-86
2022/01/28 07:34:27;;;;;;;3.30;3.00;;;1.40;99.90;;;;;;5056174;28;20457;-87
2022/01/28 07:36:54;;;;;;;3.33;3.10;;;1.40;99.90;;;;;;5055134;28;20523;-86
2022/01/28 07:39:23;;;;;;;6.10;4.17;;;1.40;99.90;;;;;;5056747;28;20468;-87
2022/01/28 07:41:50;;;;;;;5.97;3.57;;;1.40;99.90;;;;;;5055548;28;20463;-87
2022/01/28 07:44:17;;;;;;;3.33;2.70;;;1.50;99.90;;;;;;5054871;28;20453;-87
2022/01/28 07:46:44;;;;;;;4.17;3.07;;;1.50;99.90;;;;;;5059391;28;20506;-87
2022/01/28 07:49:11;;;;;;;2.93;2.53;;;1.40;99.90;;;;;;5064197;28;20555;-87
2022/01/28 07:51:38;;;;;;;3.00;2.27;;;1.50;99.90;;;;;;5055369;28;20523;-87
2022/01/28 07:54:05;;;;;;;2.97;2.37;;;1.40;99.90;;;;;;5057768;28;20523;-88
2022/01/28 07:56:34;;;;;;;3.77;2.73;;;1.50;99.90;;;;;;5063066;28;20444;-86
2022/01/28 07:59:01;;;;;;;2.60;2.10;;;1.50;99.90;;;;;;5047491;28;20437;-87
2022/01/28 08:01:28;;;;;;;13.50;7.47;;;1.40;99.90;;;;;;5057325;28;20480;-87
2022/01/28 08:03:55;;;;;;;7.10;3.63;;;1.20;99.90;;;;;;5055933;28;20507;-86
2022/01/28 08:06:22;;;;;;;5.00;3.20;;;1.10;99.90;;;;;;5060944;28;20502;-87
2022/01/28 08:08:49;;;;;;;5.07;2.17;;;1.20;99.90;;;;;;5058049;28;20560;-87
2022/01/28 08:11:16;;;;;;;1.90;1.73;;;1.30;99.90;;;;;;5056009;28;20529;-87
2022/01/28 08:13:44;;;;;;;1.70;1.50;;;1.30;99.90;;;;;;5058005;28;20519;-86
2022/01/28 08:16:11;;;;;;;2.10;1.70;;;1.30;99.90;;;;;;5055927;28;20449;-87
2022/01/28 08:18:38;;;;;;;3.33;2.10;;;1.40;99.90;;;;;;5051448;28;20464;-87
2022/01/28 08:21:05;;;;;;;7.73;5.30;;;1.40;99.90;;;;;;5054075;28;20464;-87
2022/01/28 08:23:33;;;;;;;5.23;4.63;;;1.50;99.90;;;;;;5057084;28;20457;-86
2022/01/28 08:26:00;;;;;;;1.90;1.80;;;1.60;99.90;;;;;;5051727;28;20453;-86
2022/01/28 08:28:27;;;;;;;4.20;2.40;;;1.40;99.90;;;;;;5063890;28;20561;-88
2022/01/28 08:30:56;;;;;;;2.13;1.60;;;1.30;99.90;;;;;;5047238;28;20472;-87
2022/01/28 08:33:23;;;;;;;1.43;1.33;;;1.20;99.90;;;;;;5052571;28;20452;-88
2022/01/28 08:35:53;;;;;;;1.40;1.30;;;1.20;99.90;;;;;;5058748;28;20891;-87
2022/01/28 08:38:27;;;;;;;6.50;3.37;;;1.30;99.90;;;;;;5050091;28;20958;-87
2022/01/28 08:40:56;;;;;;;1.33;1.07;;;1.30;99.90;;;;;;5045578;28;21007;-87
2022/01/28 08:43:24;;;;;;;1.90;1.73;;;1.40;99.90;;;;;;5047233;28;20455;-87
2022/01/28 08:45:50;;;;;;;6.20;3.93;;;1.50;99.90;;;;;;5057096;28;20445;-87
2022/01/28 08:48:19;;;;;;;6.60;4.07;;;1.60;99.90;;;;;;5047463;28;20558;-87
2022/01/28 08:50:47;;;;;;;4.47;4.03;;;1.60;99.90;;;;;;5053122;28;20715;-87
2022/01/28 08:53:14;;;;;;;4.30;3.80;;;1.70;99.90;;;;;;5051321;28;20513;-87
2022/01/28 08:55:41;;;;;;;5.33;4.27;;;1.70;99.90;;;;;;5059829;28;20468;-88
2022/01/28 08:58:09;;;;;;;4.70;4.00;;;1.80;99.90;;;;;;5064398;28;20499;-87
2022/01/28 09:00:36;;;;;;;4.97;3.93;;;1.80;99.90;;;;;;5059561;28;20998;-87
2022/01/28 09:03:03;;;;;;;5.50;4.30;;;1.60;99.90;;;;;;5057097;28;20522;-88
2022/01/28 09:05:33;;;;;;;5.27;4.77;;;1.60;99.90;;;;;;5053607;28;20458;-87
2022/01/28 09:08:06;;;;;;;4.97;3.77;;;1.70;99.90;;;;;;5058511;28;20968;-87
2022/01/28 09:10:33;;;;;;;3.30;3.00;;;1.60;99.90;;;;;;5065667;28;20444;-87
2022/01/28 09:13:22;;;;;;;17.53;12.10;;;1.40;99.90;;;;;;5049255;28;20446;-87
2022/01/28 09:15:50;;;;;;;11.23;9.33;;;1.40;99.90;;;;;;5047833;28;20448;-87
2022/01/28 09:18:18;;;;;;;7.83;6.10;;;1.40;99.90;;;;;;5052521;28;20449;-87
2022/01/28 09:20:47;;;;;;;10.37;9.20;;;1.50;99.90;;;;;;5054882;28;20473;-87
2022/01/28 09:23:15;;;;;;;9.27;7.80;;;1.50;99.90;;;;;;5057387;28;20443;-87
2022/01/28 09:25:43;;;;;;;41.57;36.97;;;1.50;99.90;;;;;;5056568;28;20453;-87
2022/01/28 09:28:11;;;;;;;8.03;6.60;;;1.50;99.90;;;;;;5050644;28;20507;-87
2022/01/28 09:30:37;;;;;;;109.37;84.20;;;1.50;99.90;;;;;;5057440;28;20508;-87
2022/01/28 09:33:05;;;;;;;24.47;21.13;;;1.50;99.90;;;;;;5045130;28;20440;-88
2022/01/28 09:35:34;;;;;;;12.50;10.93;;;1.50;99.90;;;;;;5060506;28;20448;-87
2022/01/28 09:38:03;;;;;;;8.90;6.57;;;1.50;99.90;;;;;;5058944;28;20949;-87
2022/01/28 09:40:31;;;;;;;6.63;5.97;;;1.50;99.90;;;;;;5062511;28;20446;-87
2022/01/28 09:43:00;;;;;;;5.90;4.73;;;1.50;99.90;;;;;;5062763;28;20437;-88
2022/01/28 09:45:27;;;;;;;11.17;5.80;;;1.50;99.90;;;;;;5061752;28;20451;-89
2022/01/28 09:47:56;;;;;;;7.83;4.97;;;1.60;99.90;;;;;;5059690;28;20468;-87
2022/01/28 09:50:25;;;;;;;8.93;3.90;;;1.60;99.90;;;;;;5061511;28;20480;-87
2022/01/28 09:52:53;;;;;;;4.50;4.10;;;1.60;99.90;;;;;;5061110;28;20486;-88
2022/01/28 09:55:23;;;;;;;5.37;4.87;;;1.70;99.90;;;;;;5059787;28;20436;-87
2022/01/28 09:57:52;;;;;;;5.83;4.63;;;1.80;99.90;;;;;;5060770;28;20461;-89
2022/01/28 10:00:22;;;;;;;5.00;3.97;;;1.80;99.90;;;;;;5071896;28;20870;-87
2022/01/28 10:02:55;;;;;;;3.97;3.57;;;1.90;99.90;;;;;;5066436;28;20472;-87
2022/01/28 10:05:26;;;;;;;10.53;8.57;;;1.90;99.90;;;;;;5067659;28;20916;-88
2022/01/28 10:08:14;;;;;;;3.30;2.80;;;1.90;99.90;;;;;;5051162;28;20540;-88
2022/01/28 10:10:58;;;;;;;4.13;3.10;;;2.00;99.90;;;;;;5055564;28;20507;-87
2022/01/28 10:13:31;;;;;;;3.07;2.33;;;2.10;99.90;;;;;;5053997;28;20451;-89
2022/01/28 10:16:06;;;;;;;1.90;1.67;;;2.10;99.90;;;;;;5048879;28;20453;-88
2022/01/28 10:18:52;;;;;;;2.10;1.90;;;2.10;99.90;;;;;;5050484;28;20443;-87
2022/01/28 10:21:36;;;;;;;3.77;2.13;;;1.90;99.90;;;;;;5072062;23;20460;-52
2022/01/28 10:24:12;;;;;;;3.30;3.10;;;1.70;99.90;;;;;;5013151;28;21003;-58
2022/01/28 10:26:43;;;;;;;3.37;1.80;;;1.80;99.90;;;;;;5015040;28;20490;-58
2022/01/28 10:29:12;;;;;;;2.90;2.20;;;1.90;99.90;;;;;;5018161;28;20503;-58
2022/01/28 10:31:45;;;;;;;2.33;2.13;;;2.00;99.90;;;;;;5022841;28;20451;-58
2022/01/28 10:34:15;;;;;;;2.00;1.87;;;2.00;99.90;;;;;;5025514;28;20462;-58
2022/01/28 10:36:43;;;;;;;1.70;1.60;;;1.90;99.90;;;;;;5014911;28;20475;-60
2022/01/28 10:39:19;;;;;;;3.70;2.83;;;2.00;99.90;;;;;;5015269;28;20486;-60
2022/01/28 10:41:56;;;;;;;3.40;3.10;;;2.10;99.90;;;;;;5019854;28;20499;-59
2022/01/28 10:44:24;;;;;;;3.17;2.83;;;2.10;99.90;;;;;;5016389;28;20463;-60
2022/01/28 10:46:55;;;;;;;2.43;2.23;;;2.10;99.90;;;;;;5019901;28;20516;-61
2022/01/28 10:49:32;;;;;;;4.77;3.90;;;2.20;99.90;;;;;;5011892;28;20502;-59
2022/01/28 10:52:08;;;;;;;2.47;2.23;;;2.20;99.90;;;;;;5004264;28;20945;-60
2022/01/28 10:54:36;;;;;;;2.20;2.00;;;2.10;99.90;;;;;;5021070;28;20459;-60
2022/01/28 10:57:07;;;;;;;4.00;3.60;;;2.10;99.90;;;;;;5023521;28;20541;-57
2022/01/28 10:59:37;;;;;;;3.00;2.47;;;2.00;99.90;;;;;;5018399;28;20540;-59
2022/01/28 11:02:06;;;;;;;1.90;1.67;;;1.90;99.90;;;;;;5019225;28;20935;-59
2022/01/28 11:04:33;;;;;;;1.90;1.57;;;1.90;99.90;;;;;;5019863;28;20487;-58
2022/01/28 11:07:03;;;;;;;2.03;1.93;;;1.90;99.90;;;;;;5019602;28;20445;-59
2022/01/28 11:09:30;;;;;;;42.47;20.10;;;1.80;99.90;;;;;;5018967;28;20513;-59
2022/01/28 11:11:57;;;;;;;5.50;2.00;;;1.90;99.90;;;;;;5017084;28;22262;-58
2022/01/28 11:14:26;;;;;;;3.53;3.23;;;1.80;99.90;;;;;;5011637;28;20794;-59
2022/01/28 11:16:53;;;;;;;3.30;3.00;;;1.90;99.90;;;;;;5006165;28;20481;-60
2022/01/28 11:19:23;;;;;;;4.30;2.37;;;1.90;99.90;;;;;;5010047;28;20472;-59
2022/01/28 11:22:09;;;;;;;1.30;0.93;;;1.90;99.90;;;;;;5010200;28;20473;-61
2022/01/28 11:25:09;;;;;;;1.73;1.40;;;1.90;99.90;;;;;;5011006;28;20566;-59
2022/01/28 11:27:40;;;;;;;4.13;3.60;;;1.90;99.90;;;;;;5008203;28;20517;-62
2022/01/28 11:30:28;;;;;;;4.40;4.00;;;1.90;99.90;;;;;;5008643;28;20486;-59
2022/01/28 11:33:04;;;;;;;2.70;2.03;;;2.00;99.90;;;;;;5013223;28;20484;-61
2022/01/28 11:35:34;;;;;;;2.40;1.10;;;2.00;99.90;;;;;;5011414;28;20450;-61
2022/01/28 11:38:04;;;;;;;2.50;1.47;;;2.10;99.90;;;;;;5011999;28;21014;-60
2022/01/28 11:40:53;;;;;;;3.00;1.93;;;2.10;99.90;;;;;;5010390;28;20466;-60
2022/01/28 11:43:22;;;;;;;2.77;2.50;;;2.20;99.90;;;;;;5004454;28;20529;-59
2022/01/28 11:46:05;;;;;;;3.40;1.40;;;2.20;99.90;;;;;;5012439;28;20521;-61
2022/01/28 11:49:14;;;;;;;3.00;2.47;;;2.20;99.90;;;;;;5011837;28;20514;-59
2022/01/28 11:51:43;;;;;;;55.23;31.10;;;2.30;99.90;;;;;;5020409;28;20470;-58
2022/01/28 11:54:12;;;;;;;20.30;9.60;;;2.30;99.90;;;;;;5016436;28;20504;-59
2022/01/28 11:56:41;;;;;;;7.27;3.87;;;2.30;99.90;;;;;;5017554;28;20451;-58
2022/01/28 11:59:09;;;;;;;2.07;1.67;;;2.30;99.90;;;;;;5017188;28;20471;-58
2022/01/28 12:02:10;;;;;;;3.23;1.77;;;2.40;99.90;;;;;;5018723;28;20474;-59
2022/01/28 12:04:38;;;;;;;2.30;1.37;;;2.50;99.90;;;;;;5019150;28;20438;-61
2022/01/28 12:07:09;;;;;;;1.63;1.40;;;2.50;99.90;;;;;;5013566;28;20475;-59
2022/01/28 12:09:38;;;;;;;1.60;1.50;;;2.40;99.90;;;;;;5014826;28;21566;-58
2022/01/28 12:12:09;;;;;;;1.67;1.50;;;2.20;99.90;;;;;;5012131;28;20504;-62
2022/01/28 12:14:58;;;;;;;1.20;1.10;;;2.10;99.90;;;;;;5020573;28;20454;-58
2022/01/28 12:18:06;;;;;;;2.40;1.20;;;2.10;99.90;;;;;;5009886;28;20541;-59
2022/01/28 12:20:44;;;;;;;3.20;1.60;;;2.20;99.90;;;;;;4988311;28;20486;-59
2022/01/28 12:23:29;;;;;;;1.77;1.20;;;2.30;99.90;;;;;;5012375;28;20506;-58
2022/01/28 12:26:00;;;;;;;3.00;2.20;;;2.40;99.90;;;;;;5008162;28;20699;-58
2022/01/28 12:28:56;;;;;;;2.10;1.50;;;2.40;99.90;;;;;;5016030;28;20447;-60
2022/01/28 12:31:29;;;;;;;1.53;1.23;;;2.50;99.90;;;;;;5011365;28;20491;-59
2022/01/28 12:34:00;;;;;;;1.60;1.50;;;2.60;99.90;;;;;;5020298;28;20458;-59
2022/01/28 12:36:30;;;;;;;1.40;1.30;;;2.60;99.90;;;;;;5010671;28;20732;-60
2022/01/28 12:39:09;;;;;;;2.00;1.83;;;2.50;99.90;;;;;;5012961;28;20449;-62
2022/01/28 12:41:49;;;;;;;4.10;2.80;;;2.40;99.90;;;;;;5016281;28;20453;-59
2022/01/28 12:44:17;;;;;;;2.33;2.13;;;2.50;99.90;;;;;;5007569;28;21003;-58
2022/01/28 12:46:52;;;;;;;2.70;2.10;;;2.50;99.90;;;;;;5011635;28;20498;-58
2022/01/28 12:49:26;;;;;;;2.07;1.70;;;2.60;99.90;;;;;;5005300;28;20514;-59
2022/01/28 12:51:56;;;;;;;2.33;2.13;;;2.60;99.90;;;;;;5006455;28;20540;-58
2022/01/28 12:54:35;;;;;;;1.90;1.47;;;2.70;99.90;;;;;;5015041;28;20447;-58
2022/01/28 12:57:02;;;;;;;2.20;1.90;;;2.70;99.90;;;;;;5015429;28;20476;-57
2022/01/28 12:59:29;;;;;;;14.60;5.93;;;2.80;99.90;;;;;;5007997;28;20927;-58
2022/01/28 13:01:57;;;;;;;3.60;2.23;;;2.80;99.90;;;;;;5004700;28;20570;-58
2022/01/28 13:04:37;;;;;;;2.40;1.83;;;2.80;99.90;;;;;;5005609;28;20471;-58
2022/01/28 13:09:50;;;;;;;3.53;2.20;;;2.70;99.90;;;;;;5014906;28;20478;-60
2022/01/28 13:12:23;;;;;;;2.80;2.33;;;2.70;99.90;;;;;;5004820;28;20479;-59
2022/01/28 13:14:50;;;;;;;3.03;1.60;;;2.60;99.90;;;;;;5009839;28;20443;-59
2022/01/28 13:17:20;;;;;;;2.37;2.00;;;2.60;99.90;;;;;;5005683;28;20782;-57
2022/01/28 13:19:56;;;;;;;1.40;1.30;;;2.50;99.90;;;;;;5007716;28;20440;-59
2022/01/28 13:22:25;;;;;;;2.33;1.67;;;2.40;99.90;;;;;;5017657;28;20919;-58
2022/01/28 13:24:52;;;;;;;2.03;1.63;;;2.30;99.90;;;;;;5009928;28;20536;-58
2022/01/28 13:27:21;;;;;;;4.23;2.00;;;2.30;99.90;;;;;;5015046;28;20447;-58
2022/01/28 13:29:52;;;;;;;2.63;1.27;;;2.30;99.90;;;;;;5018985;28;20983;-61
2022/01/28 13:32:23;;;;;;;1.63;1.53;;;2.30;99.90;;;;;;5022809;28;21058;-58
2022/01/28 13:34:53;;;;;;;2.67;1.33;;;2.10;99.90;;;;;;5019571;28;20453;-60
2022/01/28 13:37:38;;;;;;;1.50;1.40;;;2.10;99.90;;;;;;5008678;28;20447;-61
2022/01/28 13:40:07;;;;;;;1.30;1.20;;;2.20;99.90;;;;;;5010103;28;20447;-58
2022/01/28 13:42:34;;;;;;;0.80;0.80;;;2.20;99.90;;;;;;5019552;28;20962;-59
2022/01/28 13:45:04;;;;;;;0.93;0.93;;;2.20;99.90;;;;;;5021916;28;20466;-57
2022/01/28 13:47:51;;;;;;;1.17;1.07;;;2.20;99.90;;;;;;5017063;28;20481;-59
2022/01/28 13:50:29;;;;;;;1.87;1.77;;;2.20;99.90;;;;;;5012968;28;21314;-58
2022/01/28 13:53:32;;;;;;;3.40;1.90;;;2.30;99.90;;;;;;5007525;28;20478;-60
2022/01/28 13:56:07;;;;;;;2.80;1.73;;;2.30;99.90;;;;;;5002492;28;20450;-61
2022/01/28 13:58:45;;;;;;;2.00;1.43;;;2.40;99.90;;;;;;5020078;28;20447;-60
2022/01/28 14:01:12;;;;;;;1.80;1.40;;;2.30;99.90;;;;;;5023234;28;20487;-58
2022/01/28 14:03:48;;;;;;;1.53;1.40;;;2.10;99.90;;;;;;5009349;28;20498;-58
2022/01/28 14:06:18;;;;;;;2.10;1.90;;;2.00;99.90;;;;;;5012064;28;20451;-58
2022/01/28 14:08:51;;;;;;;2.30;1.67;;;1.80;99.90;;;;;;5014038;28;20442;-58